PWSweather.com
Personal Weather Stations
Station Observations
BAJUZ
LucenecSK 984 01

LucenecSK 984 01

Lat: 48.335803055476, Lon: 19.645267948508

Elevation: 771

Station Type: Davis

http://meteolc.sk

Latest ConditionsUpdated 9:45:05 PM GMT+01:01 Monday, Sep 23, 2019
Currently Today's Max Today's Min Today's Average
Temperature 54.7°F12.6°C 58.6°F14.8°C 46.0°F7.8°C 52.6°F11.4°C
Dew Point 52.4°F11.3°C 54.5°F12.5°C 42.0°F5.6°C 49.6°F9.8°C
Winds 2.0 mph SE3.2 kmh SE 2.0 mph -3.2 kmh - - 2.0 mph 3.2 kmh
Wind Gusts 9.0 mph14.5 kmh 9.0 mph14.5 kmh - -
Humidity 92% 94% 83% 89%
Pressure 29.98 in1015.2 mb 30.04 in1017.3 mb 29.97 in1014.9 mb -
Precipitation - 0.34 in8.6 mm - -
Hour Temp Dew Point Humidity Winds Wind Gusts Pressure Precip Precip Rate Daily Precip Total
09:45 PM 54.7°F12.6°C 52.4°F11.3°C 92% 2.0 mph SE3.2 kmh SE 9.0 mph14.5 kmh 29.98 in1015.2 mb 0.00 in0.0 mm 0.00 in0.0 mm 0.34 in8.6 mm
09:30 PM 54.9°F12.7°C 52.6°F11.4°C 92% 2.0 mph SE3.2 kmh SE 9.0 mph14.5 kmh 29.98 in1015.2 mb 0.00 in0.0 mm 0.00 in0.0 mm 0.34 in8.6 mm
09:15 PM 55.0°F12.8°C 52.8°F11.6°C 92% 2.0 mph SE3.2 kmh SE 9.0 mph14.5 kmh 29.98 in1015.2 mb 0.00 in0.0 mm 0.00 in0.0 mm 0.34 in8.6 mm
09:00 PM 55.2°F12.9°C 52.9°F11.6°C 92% 2.0 mph SE3.2 kmh SE 9.0 mph14.5 kmh 29.99 in1015.6 mb 0.00 in0.0 mm 0.00 in0.0 mm 0.34 in8.6 mm
08:45 PM 55.2°F12.9°C 52.9°F11.6°C 92% 2.0 mph SE3.2 kmh SE 9.0 mph14.5 kmh 29.99 in1015.6 mb 0.00 in0.0 mm 0.00 in0.0 mm 0.34 in8.6 mm
08:30 PM 55.4°F13.0°C 53.1°F11.7°C 92% 2.0 mph SE3.2 kmh SE 9.0 mph14.5 kmh 29.99 in1015.6 mb 0.00 in0.0 mm 0.00 in0.0 mm 0.34 in8.6 mm
08:15 PM 55.4°F13.0°C 53.1°F11.7°C 92% 2.0 mph SE3.2 kmh SE 9.0 mph14.5 kmh 29.99 in1015.6 mb 0.00 in0.0 mm 0.00 in0.0 mm 0.34 in8.6 mm
08:00 PM 55.6°F13.1°C 53.3°F11.8°C 92% 2.0 mph SE3.2 kmh SE 9.0 mph14.5 kmh 29.99 in1015.6 mb 0.00 in0.0 mm 0.00 in0.0 mm 0.34 in8.6 mm
07:45 PM 55.8°F13.2°C 53.5°F11.9°C 92% 2.0 mph SE3.2 kmh SE 9.0 mph14.5 kmh 29.99 in1015.6 mb 0.00 in0.0 mm 0.00 in0.0 mm 0.34 in8.6 mm
07:30 PM 55.8°F13.2°C 53.2°F11.8°C 91% 2.0 mph SE3.2 kmh SE 9.0 mph14.5 kmh 29.99 in1015.6 mb 0.00 in0.0 mm 0.00 in0.0 mm 0.34 in8.6 mm
07:15 PM 55.9°F13.3°C 53.4°F11.9°C 91% 2.0 mph SE3.2 kmh SE 9.0 mph14.5 kmh 29.98 in1015.2 mb 0.00 in0.0 mm 0.00 in0.0 mm 0.34 in8.6 mm
07:00 PM 56.1°F13.4°C 53.5°F11.9°C 91% 2.0 mph SE3.2 kmh SE 9.0 mph14.5 kmh 29.98 in1015.2 mb 0.00 in0.0 mm 0.00 in0.0 mm 0.34 in8.6 mm
06:45 PM 56.5°F13.6°C 53.6°F12.0°C 90% 2.0 mph SE3.2 kmh SE 9.0 mph14.5 kmh 29.98 in1015.2 mb 0.00 in0.0 mm 0.00 in0.0 mm 0.34 in8.6 mm
06:30 PM 56.7°F13.7°C 53.8°F12.1°C 90% 2.0 mph SE3.2 kmh SE 9.0 mph14.5 kmh 29.98 in1015.2 mb 0.00 in0.0 mm 0.00 in0.0 mm 0.34 in8.6 mm
06:15 PM 56.8°F13.8°C 53.6°F12.0°C 89% 2.0 mph SE3.2 kmh SE 9.0 mph14.5 kmh 29.98 in1015.2 mb 0.00 in0.0 mm 0.00 in0.0 mm 0.34 in8.6 mm
06:00 PM 57.0°F13.9°C 53.5°F11.9°C 88% 2.0 mph SE3.2 kmh SE 9.0 mph14.5 kmh 29.98 in1015.2 mb 0.00 in0.0 mm 0.00 in0.0 mm 0.34 in8.6 mm
05:45 PM 57.4°F14.1°C 53.9°F12.2°C 88% 2.0 mph SE3.2 kmh SE 9.0 mph14.5 kmh 29.98 in1015.2 mb 0.00 in0.0 mm 0.00 in0.0 mm 0.34 in8.6 mm
05:30 PM 57.7°F14.3°C 53.9°F12.2°C 87% 2.0 mph SE3.2 kmh SE 9.0 mph14.5 kmh 29.98 in1015.2 mb 0.00 in0.0 mm 0.00 in0.0 mm 0.34 in8.6 mm
05:15 PM 58.1°F14.5°C 54.2°F12.3°C 87% 2.0 mph SE3.2 kmh SE 9.0 mph14.5 kmh 29.98 in1015.2 mb 0.00 in0.0 mm 0.00 in0.0 mm 0.34 in8.6 mm
05:00 PM 58.6°F14.8°C 54.1°F12.3°C 85% 2.0 mph SE3.2 kmh SE 9.0 mph14.5 kmh 29.98 in1015.2 mb 0.00 in0.0 mm 0.00 in0.0 mm 0.34 in8.6 mm
04:45 PM 58.6°F14.8°C 54.5°F12.5°C 86% 2.0 mph SE3.2 kmh SE 9.0 mph14.5 kmh 29.97 in1014.9 mb 0.00 in0.0 mm 0.00 in0.0 mm 0.34 in8.6 mm
04:30 PM 58.3°F14.6°C 54.1°F12.3°C 86% 2.0 mph SE3.2 kmh SE 9.0 mph14.5 kmh 29.98 in1015.2 mb 0.00 in0.0 mm 0.00 in0.0 mm 0.34 in8.6 mm
04:15 PM 58.1°F14.5°C 53.6°F12.0°C 85% 2.0 mph SE3.2 kmh SE 9.0 mph14.5 kmh 29.98 in1015.2 mb 0.00 in0.0 mm 0.00 in0.0 mm 0.34 in8.6 mm
04:00 PM 57.9°F14.4°C 53.4°F11.9°C 85% 2.0 mph SE3.2 kmh SE 9.0 mph14.5 kmh 29.98 in1015.2 mb 0.00 in0.0 mm 0.00 in0.0 mm 0.34 in8.6 mm
03:45 PM 57.9°F14.4°C 53.8°F12.1°C 86% 2.0 mph SE3.2 kmh SE 9.0 mph14.5 kmh 29.98 in1015.2 mb 0.00 in0.0 mm 0.00 in0.0 mm 0.34 in8.6 mm
03:30 PM 57.9°F14.4°C 53.8°F12.1°C 86% 2.0 mph SE3.2 kmh SE 9.0 mph14.5 kmh 29.99 in1015.6 mb 0.00 in0.0 mm 0.00 in0.0 mm 0.34 in8.6 mm
03:15 PM 57.9°F14.4°C 53.4°F11.9°C 85% 2.0 mph SE3.2 kmh SE 9.0 mph14.5 kmh 29.99 in1015.6 mb 0.00 in0.0 mm 0.00 in0.0 mm 0.34 in8.6 mm
03:00 PM 57.7°F14.3°C 52.9°F11.6°C 84% 2.0 mph SE3.2 kmh SE 9.0 mph14.5 kmh 29.99 in1015.6 mb 0.00 in0.0 mm 0.00 in0.0 mm 0.34 in8.6 mm
02:45 PM 57.7°F14.3°C 52.9°F11.6°C 84% 2.0 mph SE3.2 kmh SE 9.0 mph14.5 kmh 29.99 in1015.6 mb 0.00 in0.0 mm 0.00 in0.0 mm 0.34 in8.6 mm
02:30 PM 57.4°F14.1°C 52.3°F11.3°C 83% 2.0 mph SE3.2 kmh SE 9.0 mph14.5 kmh 29.99 in1015.6 mb 0.00 in0.0 mm 0.00 in0.0 mm 0.34 in8.6 mm
02:15 PM 57.0°F13.9°C 52.6°F11.4°C 85% 2.0 mph SE3.2 kmh SE 9.0 mph14.5 kmh 30.00 in1015.9 mb 0.00 in0.0 mm 0.00 in0.0 mm 0.34 in8.6 mm
02:00 PM 56.7°F13.7°C 52.5°F11.4°C 86% 2.0 mph SE3.2 kmh SE 9.0 mph14.5 kmh 30.00 in1015.9 mb 0.00 in0.0 mm 0.00 in0.0 mm 0.34 in8.6 mm
01:45 PM 56.1°F13.4°C 52.3°F11.3°C 87% 2.0 mph SE3.2 kmh SE 9.0 mph14.5 kmh 30.00 in1015.9 mb 0.00 in0.0 mm 0.00 in0.0 mm 0.34 in8.6 mm
01:30 PM 55.8°F13.2°C 52.6°F11.4°C 89% 2.0 mph SE3.2 kmh SE 9.0 mph14.5 kmh 30.00 in1015.9 mb 0.00 in0.0 mm 0.00 in0.0 mm 0.34 in8.6 mm
01:15 PM 55.8°F13.2°C 53.2°F11.8°C 91% 2.0 mph SE3.2 kmh SE 9.0 mph14.5 kmh 30.00 in1015.9 mb 0.00 in0.0 mm 0.00 in0.0 mm 0.34 in8.6 mm
01:00 PM 55.6°F13.1°C 52.7°F11.5°C 90% 2.0 mph SE3.2 kmh SE 9.0 mph14.5 kmh 30.01 in1016.3 mb 0.00 in0.0 mm 0.00 in0.0 mm 0.34 in8.6 mm
12:45 PM 55.6°F13.1°C 53.0°F11.7°C 91% 2.0 mph SE3.2 kmh SE 9.0 mph14.5 kmh 30.00 in1015.9 mb 0.00 in0.0 mm 0.00 in0.0 mm 0.34 in8.6 mm
12:30 PM 55.0°F12.8°C 52.5°F11.4°C 91% 2.0 mph SE3.2 kmh SE 9.0 mph14.5 kmh 30.00 in1015.9 mb 0.00 in0.0 mm 0.00 in0.0 mm 0.34 in8.6 mm
12:15 PM 54.9°F12.7°C 52.3°F11.3°C 91% 2.0 mph SE3.2 kmh SE 9.0 mph14.5 kmh 30.01 in1016.3 mb 0.00 in0.0 mm 0.00 in0.0 mm 0.34 in8.6 mm
12:00 PM 54.7°F12.6°C 52.4°F11.3°C 92% 2.0 mph SE3.2 kmh SE 9.0 mph14.5 kmh 30.01 in1016.3 mb 0.00 in0.0 mm 0.00 in0.0 mm 0.34 in8.6 mm
11:45 AM 54.5°F12.5°C 52.5°F11.4°C 93% 2.0 mph SE3.2 kmh SE 9.0 mph14.5 kmh 30.01 in1016.3 mb 0.00 in0.0 mm 0.00 in0.0 mm 0.34 in8.6 mm
11:30 AM 54.3°F12.4°C 52.3°F11.3°C 93% 2.0 mph SE3.2 kmh SE 9.0 mph14.5 kmh 30.02 in1016.6 mb 0.01 in0.3 mm 0.00 in0.0 mm 0.34 in8.6 mm
11:15 AM 54.1°F12.3°C 52.5°F11.4°C 94% 2.0 mph SE3.2 kmh SE 9.0 mph14.5 kmh 30.02 in1016.6 mb 0.01 in0.3 mm 0.00 in0.0 mm 0.34 in8.6 mm
11:00 AM 53.6°F12.0°C 51.9°F11.1°C 94% 2.0 mph SE3.2 kmh SE 9.0 mph14.5 kmh 30.02 in1016.6 mb 0.02 in0.5 mm 0.00 in0.0 mm 0.34 in8.6 mm
10:45 AM 53.1°F11.7°C 51.4°F10.8°C 94% 2.0 mph SE3.2 kmh SE 9.0 mph14.5 kmh 30.02 in1016.6 mb 0.04 in1.0 mm 0.00 in0.0 mm 0.34 in8.6 mm
10:30 AM 52.9°F11.6°C 51.2°F10.7°C 94% 2.0 mph SE3.2 kmh SE 9.0 mph14.5 kmh 30.03 in1016.9 mb 0.06 in1.5 mm 0.00 in0.0 mm 0.33 in8.4 mm
10:15 AM 53.1°F11.7°C 51.4°F10.8°C 94% 2.0 mph SE3.2 kmh SE 9.0 mph14.5 kmh 30.03 in1016.9 mb 0.09 in2.3 mm 0.00 in0.0 mm 0.33 in8.4 mm
10:00 AM 52.7°F11.5°C 51.0°F10.6°C 94% 2.0 mph SE3.2 kmh SE 9.0 mph14.5 kmh 30.03 in1016.9 mb 0.10 in2.5 mm 0.00 in0.0 mm 0.31 in7.9 mm
09:45 AM 52.5°F11.4°C 50.8°F10.4°C 94% 2.0 mph SE3.2 kmh SE 9.0 mph14.5 kmh 30.03 in1016.9 mb 0.11 in2.8 mm 0.04 in1.0 mm 0.30 in7.6 mm
09:30 AM 52.5°F11.4°C 50.8°F10.4°C 94% 2.0 mph SE3.2 kmh SE 9.0 mph14.5 kmh 30.04 in1017.3 mb 0.10 in2.5 mm 0.04 in1.0 mm 0.27 in6.9 mm
09:15 AM 52.3°F11.3°C 50.7°F10.4°C 94% 2.0 mph SE3.2 kmh SE 9.0 mph14.5 kmh 30.04 in1017.3 mb 0.09 in2.3 mm 0.12 in3.0 mm 0.24 in6.1 mm
09:00 AM 52.3°F11.3°C 50.7°F10.4°C 94% 2.0 mph SE3.2 kmh SE 9.0 mph14.5 kmh 30.03 in1016.9 mb 0.06 in1.5 mm 0.01 in0.3 mm 0.21 in5.3 mm
08:45 AM 52.0°F11.1°C 50.3°F10.2°C 94% 2.0 mph SE3.2 kmh SE 9.0 mph14.5 kmh 30.03 in1016.9 mb 0.05 in1.3 mm 0.08 in2.0 mm 0.19 in4.8 mm
08:30 AM 51.6°F10.9°C 49.9°F9.9°C 94% 2.0 mph SE3.2 kmh SE 9.0 mph14.5 kmh 30.02 in1016.6 mb 0.03 in0.8 mm 0.00 in0.0 mm 0.17 in4.3 mm
08:15 AM 51.4°F10.8°C 49.8°F9.9°C 94% 2.0 mph SE3.2 kmh SE 9.0 mph14.5 kmh 30.02 in1016.6 mb 0.03 in0.8 mm 0.00 in0.0 mm 0.16 in4.1 mm
08:00 AM 51.3°F10.7°C 49.3°F9.6°C 93% 2.0 mph SE3.2 kmh SE 9.0 mph14.5 kmh 30.02 in1016.6 mb 0.03 in0.8 mm 0.00 in0.0 mm 0.15 in3.8 mm
07:45 AM 50.9°F10.5°C 48.9°F9.4°C 93% 2.0 mph SE3.2 kmh SE 9.0 mph14.5 kmh 30.02 in1016.6 mb 0.03 in0.8 mm 0.00 in0.0 mm 0.14 in3.6 mm
07:30 AM 50.5°F10.3°C 48.6°F9.2°C 93% 2.0 mph SE3.2 kmh SE 9.0 mph14.5 kmh 30.02 in1016.6 mb 0.04 in1.0 mm 0.00 in0.0 mm 0.13 in3.3 mm
07:15 AM 50.2°F10.1°C 48.2°F9.0°C 93% 2.0 mph SE3.2 kmh SE 9.0 mph14.5 kmh 30.02 in1016.6 mb 0.05 in1.3 mm 0.00 in0.0 mm 0.13 in3.3 mm
07:00 AM 49.8°F9.9°C 47.9°F8.8°C 93% 2.0 mph SE3.2 kmh SE 9.0 mph14.5 kmh 30.02 in1016.6 mb 0.05 in1.3 mm 0.00 in0.0 mm 0.12 in3.0 mm
06:45 AM 49.5°F9.7°C 47.5°F8.6°C 93% 2.0 mph SE3.2 kmh SE 9.0 mph14.5 kmh 30.02 in1016.6 mb 0.06 in1.5 mm 0.04 in1.0 mm 0.11 in2.8 mm
06:30 AM 49.1°F9.5°C 47.2°F8.4°C 93% 2.0 mph SE3.2 kmh SE 9.0 mph14.5 kmh 30.01 in1016.3 mb 0.05 in1.3 mm 0.08 in2.0 mm 0.09 in2.3 mm
06:15 AM 48.6°F9.2°C 46.6°F8.1°C 93% 2.0 mph SE3.2 kmh SE 9.0 mph14.5 kmh 30.02 in1016.6 mb 0.03 in0.8 mm 0.00 in0.0 mm 0.08 in2.0 mm
06:00 AM 48.0°F8.9°C 45.8°F7.7°C 92% 2.0 mph SE3.2 kmh SE 9.0 mph14.5 kmh 30.02 in1016.6 mb 0.03 in0.8 mm 0.00 in0.0 mm 0.07 in1.8 mm
05:45 AM 47.8°F8.8°C 45.3°F7.4°C 91% 2.0 mph SE3.2 kmh SE 9.0 mph14.5 kmh 30.01 in1016.3 mb 0.03 in0.8 mm 0.00 in0.0 mm 0.06 in1.5 mm
05:30 AM 48.0°F8.9°C 45.5°F7.5°C 91% 2.0 mph SE3.2 kmh SE 9.0 mph14.5 kmh 30.00 in1015.9 mb 0.03 in0.8 mm 0.00 in0.0 mm 0.05 in1.3 mm
05:15 AM 47.8°F8.8°C 45.3°F7.4°C 91% 2.0 mph SE3.2 kmh SE 9.0 mph14.5 kmh 30.00 in1015.9 mb 0.05 in1.3 mm 0.04 in1.0 mm 0.05 in1.3 mm
05:00 AM 47.8°F8.8°C 45.0°F7.2°C 90% 2.0 mph SE3.2 kmh SE 9.0 mph14.5 kmh 30.00 in1015.9 mb 0.04 in1.0 mm 0.03 in0.8 mm 0.04 in1.0 mm
04:45 AM 48.0°F8.9°C 44.9°F7.2°C 89% 2.0 mph SE3.2 kmh SE 9.0 mph14.5 kmh 30.00 in1015.9 mb 0.02 in0.5 mm 0.00 in0.0 mm 0.02 in0.5 mm
04:30 AM 48.2°F9.0°C 44.8°F7.1°C 88% 2.0 mph SE3.2 kmh SE 9.0 mph14.5 kmh 30.00 in1015.9 mb 0.02 in0.5 mm 0.08 in2.0 mm 0.02 in0.5 mm
04:15 AM 48.2°F9.0°C 44.2°F6.8°C 86% 2.0 mph SE3.2 kmh SE 9.0 mph14.5 kmh 30.00 in1015.9 mb 0.00 in0.0 mm 0.00 in0.0 mm 0.00 in0.0 mm
04:00 AM 47.8°F8.8°C 43.5°F6.4°C 85% 2.0 mph SE3.2 kmh SE 9.0 mph14.5 kmh 30.01 in1016.3 mb 0.00 in0.0 mm 0.00 in0.0 mm 0.00 in0.0 mm
03:45 AM 47.5°F8.6°C 43.2°F6.2°C 85% 2.0 mph SE3.2 kmh SE 9.0 mph14.5 kmh 30.01 in1016.3 mb 0.00 in0.0 mm 0.00 in0.0 mm 0.00 in0.0 mm
03:30 AM 47.1°F8.4°C 42.8°F6.0°C 85% 2.0 mph SE3.2 kmh SE 9.0 mph14.5 kmh 30.00 in1015.9 mb 0.00 in0.0 mm 0.00 in0.0 mm 0.00 in0.0 mm
03:15 AM 46.8°F8.2°C 42.8°F6.0°C 86% 2.0 mph SE3.2 kmh SE 9.0 mph14.5 kmh 30.00 in1015.9 mb 0.00 in0.0 mm 0.00 in0.0 mm 0.00 in0.0 mm
03:00 AM 46.6°F8.1°C 42.6°F5.9°C 86% 2.0 mph SE3.2 kmh SE 9.0 mph14.5 kmh 30.00 in1015.9 mb 0.00 in0.0 mm 0.00 in0.0 mm 0.00 in0.0 mm
02:45 AM 46.4°F8.0°C 42.4°F5.8°C 86% 2.0 mph SE3.2 kmh SE 9.0 mph14.5 kmh 30.00 in1015.9 mb 0.00 in0.0 mm 0.00 in0.0 mm 0.00 in0.0 mm
02:30 AM 46.6°F8.1°C 42.6°F5.9°C 86% 2.0 mph SE3.2 kmh SE 9.0 mph14.5 kmh 30.00 in1015.9 mb 0.00 in0.0 mm 0.00 in0.0 mm 0.00 in0.0 mm
02:15 AM 46.4°F8.0°C 42.4°F5.8°C 86% 2.0 mph SE3.2 kmh SE 9.0 mph14.5 kmh 30.00 in1015.9 mb 0.00 in0.0 mm 0.00 in0.0 mm 0.00 in0.0 mm
02:00 AM 46.2°F7.9°C 42.3°F5.7°C 86% 2.0 mph SE3.2 kmh SE 9.0 mph14.5 kmh 30.01 in1016.3 mb 0.00 in0.0 mm 0.00 in0.0 mm 0.00 in0.0 mm
01:45 AM 46.0°F7.8°C 42.1°F5.6°C 86% 2.0 mph SE3.2 kmh SE 9.0 mph14.5 kmh 30.01 in1016.3 mb 0.00 in0.0 mm 0.00 in0.0 mm 0.00 in0.0 mm
01:30 AM 46.2°F7.9°C 42.3°F5.7°C 86% 2.0 mph SE3.2 kmh SE 9.0 mph14.5 kmh 30.01 in1016.3 mb 0.00 in0.0 mm 0.00 in0.0 mm 0.00 in0.0 mm
01:15 AM 46.2°F7.9°C 42.0°F5.6°C 85% 2.0 mph SE3.2 kmh SE 9.0 mph14.5 kmh 30.02 in1016.6 mb 0.00 in0.0 mm 0.00 in0.0 mm 0.00 in0.0 mm
01:00 AM 46.6°F8.1°C 42.3°F5.7°C 85% 2.0 mph SE3.2 kmh SE 9.0 mph14.5 kmh 30.02 in1016.6 mb 0.00 in0.0 mm 0.00 in0.0 mm 0.00 in0.0 mm
12:45 AM 46.8°F8.2°C 42.5°F5.8°C 85% 2.0 mph SE3.2 kmh SE 9.0 mph14.5 kmh 30.02 in1016.6 mb 0.00 in0.0 mm 0.00 in0.0 mm 0.00 in0.0 mm
12:30 AM 46.9°F8.3°C 42.7°F5.9°C 85% 2.0 mph SE3.2 kmh SE 9.0 mph14.5 kmh 30.02 in1016.6 mb 0.00 in0.0 mm 0.00 in0.0 mm 0.00 in0.0 mm
12:15 AM 47.1°F8.4°C 42.8°F6.0°C 85% 2.0 mph SE3.2 kmh SE 9.0 mph14.5 kmh 30.02 in1016.6 mb 0.00 in0.0 mm 0.00 in0.0 mm 0.00 in0.0 mm
12:00 AM 47.3°F8.5°C 42.7°F5.9°C 84% 2.0 mph SE3.2 kmh SE 9.0 mph14.5 kmh 30.02 in1016.6 mb 0.00 in0.0 mm 0.00 in0.0 mm 0.00 in0.0 mm